Lockridge, Iowa
Current Conditions -  °F | °C
As of 10:55 AM on Saturday 22 Nov 2014 (Local Time) from KMPZ Reporting Station
Overcast Overcast  
Wind Chill: 52°   Ceiling: 1400
Heat Index: 52°   Visibility: 10mi
Dew Point: 48°   Wind: 13mph
Humidity: 84%   Direction: 200°SSW
Pressure: 29.91"   Gusts: NA
Location:  40.99°N, 91.75°W
Report Text: KMPZ 221655Z AUTO 20011KT 10SM OVC014 11/09 A2991 RMK AO2 T01130087
Loading
Personal Weather Stations






























Interactive Weather Map New forecast layout! Learn more

10-Day Weather Forecast

Advertisements
Track Severe Weather on mobile